sensor_id;sensor_type;location;lat;lon;timestamp;P1;durP1;ratioP1;P2;durP2;ratioP2
27305;SDS011;14792;50.886;6.468;2022-11-15T00:00:56;19.40;;;14.55;;
27305;SDS011;14792;50.886;6.468;2022-11-15T00:03:58;21.42;;;14.23;;
27305;SDS011;14792;50.886;6.468;2022-11-15T00:07:00;24.63;;;14.60;;
27305;SDS011;14792;50.886;6.468;2022-11-15T00:10:01;19.62;;;13.62;;
27305;SDS011;14792;50.886;6.468;2022-11-15T00:13:10;22.07;;;14.63;;
27305;SDS011;14792;50.886;6.468;2022-11-15T00:16:10;23.67;;;13.83;;
27305;SDS011;14792;50.886;6.468;2022-11-15T00:19:12;19.87;;;13.50;;
27305;SDS011;14792;50.886;6.468;2022-11-15T00:22:13;20.60;;;13.48;;
27305;SDS011;14792;50.886;6.468;2022-11-15T00:25:15;16.75;;;12.20;;
27305;SDS011;14792;50.886;6.468;2022-11-15T00:28:17;17.75;;;12.98;;
27305;SDS011;14792;50.886;6.468;2022-11-15T00:31:18;18.05;;;12.28;;
27305;SDS011;14792;50.886;6.468;2022-11-15T00:34:20;16.48;;;11.80;;
27305;SDS011;14792;50.886;6.468;2022-11-15T00:37:21;18.00;;;11.97;;
27305;SDS011;14792;50.886;6.468;2022-11-15T00:40:23;20.30;;;12.37;;
27305;SDS011;14792;50.886;6.468;2022-11-15T00:43:25;19.50;;;12.47;;
27305;SDS011;14792;50.886;6.468;2022-11-15T00:46:26;16.07;;;12.55;;
27305;SDS011;14792;50.886;6.468;2022-11-15T00:49:28;21.25;;;13.00;;
27305;SDS011;14792;50.886;6.468;2022-11-15T00:52:29;20.88;;;12.18;;
27305;SDS011;14792;50.886;6.468;2022-11-15T00:55:31;19.98;;;12.18;;
27305;SDS011;14792;50.886;6.468;2022-11-15T00:58:34;15.32;;;11.18;;
27305;SDS011;14792;50.886;6.468;2022-11-15T01:01:35;19.37;;;11.93;;
27305;SDS011;14792;50.886;6.468;2022-11-15T01:04:37;21.27;;;11.57;;
27305;SDS011;14792;50.886;6.468;2022-11-15T01:07:39;13.83;;;9.50;;
27305;SDS011;14792;50.886;6.468;2022-11-15T01:10:40;16.23;;;9.93;;
27305;SDS011;14792;50.886;6.468;2022-11-15T01:13:42;12.95;;;9.48;;
27305;SDS011;14792;50.886;6.468;2022-11-15T01:16:43;12.90;;;9.00;;
27305;SDS011;14792;50.886;6.468;2022-11-15T01:19:45;13.03;;;9.78;;
27305;SDS011;14792;50.886;6.468;2022-11-15T01:22:47;14.58;;;9.48;;
27305;SDS011;14792;50.886;6.468;2022-11-15T01:25:48;12.68;;;8.35;;
27305;SDS011;14792;50.886;6.468;2022-11-15T01:28:50;15.18;;;8.58;;
27305;SDS011;14792;50.886;6.468;2022-11-15T01:31:52;10.70;;;7.40;;
27305;SDS011;14792;50.886;6.468;2022-11-15T01:34:53;11.08;;;6.85;;
27305;SDS011;14792;50.886;6.468;2022-11-15T01:37:55;13.10;;;7.47;;
27305;SDS011;14792;50.886;6.468;2022-11-15T01:40:56;12.23;;;7.28;;
27305;SDS011;14792;50.886;6.468;2022-11-15T01:47:31;9.68;;;6.42;;
27305;SDS011;14792;50.886;6.468;2022-11-15T01:50:31;11.95;;;7.53;;
27305;SDS011;14792;50.886;6.468;2022-11-15T01:53:33;14.30;;;7.20;;
27305;SDS011;14792;50.886;6.468;2022-11-15T01:56:36;13.28;;;7.10;;
27305;SDS011;14792;50.886;6.468;2022-11-15T01:59:37;10.35;;;7.20;;
27305;SDS011;14792;50.886;6.468;2022-11-15T02:02:37;11.83;;;7.12;;
27305;SDS011;14792;50.886;6.468;2022-11-15T02:05:39;10.00;;;6.90;;
27305;SDS011;14792;50.886;6.468;2022-11-15T02:08:41;16.85;;;8.18;;
27305;SDS011;14792;50.886;6.468;2022-11-15T02:11:42;18.07;;;8.40;;
27305;SDS011;14792;50.886;6.468;2022-11-15T02:14:45;17.95;;;8.93;;
27305;SDS011;14792;50.886;6.468;2022-11-15T02:20:58;15.25;;;8.95;;
27305;SDS011;14792;50.886;6.468;2022-11-15T02:24:20;17.07;;;9.50;;
27305;SDS011;14792;50.886;6.468;2022-11-15T02:40:26;15.43;;;9.05;;
27305;SDS011;14792;50.886;6.468;2022-11-15T02:43:49;14.18;;;8.48;;
27305;SDS011;14792;50.886;6.468;2022-11-15T02:50:12;10.70;;;8.58;;
27305;SDS011;14792;50.886;6.468;2022-11-15T02:53:13;13.80;;;8.00;;
27305;SDS011;14792;50.886;6.468;2022-11-15T02:56:14;12.00;;;8.05;;
27305;SDS011;14792;50.886;6.468;2022-11-15T03:05:56;11.53;;;7.65;;
27305;SDS011;14792;50.886;6.468;2022-11-15T03:11:58;9.50;;;7.60;;
27305;SDS011;14792;50.886;6.468;2022-11-15T03:15:00;12.43;;;7.50;;
27305;SDS011;14792;50.886;6.468;2022-11-15T03:18:07;11.12;;;6.97;;
27305;SDS011;14792;50.886;6.468;2022-11-15T03:21:10;11.18;;;6.62;;
27305;SDS011;14792;50.886;6.468;2022-11-15T03:24:11;7.85;;;6.55;;
27305;SDS011;14792;50.886;6.468;2022-11-15T03:27:14;8.43;;;6.12;;
27305;SDS011;14792;50.886;6.468;2022-11-15T03:30:14;7.22;;;6.22;;
27305;SDS011;14792;50.886;6.468;2022-11-15T03:33:16;7.97;;;5.53;;
27305;SDS011;14792;50.886;6.468;2022-11-15T03:36:17;7.92;;;5.30;;
27305;SDS011;14792;50.886;6.468;2022-11-15T03:39:19;6.20;;;5.20;;
27305;SDS011;14792;50.886;6.468;2022-11-15T03:42:28;7.30;;;5.35;;
27305;SDS011;14792;50.886;6.468;2022-11-15T03:45:39;7.80;;;5.15;;
27305;SDS011;14792;50.886;6.468;2022-11-15T03:48:48;7.47;;;5.03;;
27305;SDS011;14792;50.886;6.468;2022-11-15T03:51:46;6.12;;;4.78;;
27305;SDS011;14792;50.886;6.468;2022-11-15T03:54:49;5.00;;;4.30;;
27305;SDS011;14792;50.886;6.468;2022-11-15T03:57:50;5.87;;;4.60;;
27305;SDS011;14792;50.886;6.468;2022-11-15T04:00:50;8.15;;;5.72;;
27305;SDS011;14792;50.886;6.468;2022-11-15T04:03:52;10.43;;;6.87;;
27305;SDS011;14792;50.886;6.468;2022-11-15T04:06:54;15.72;;;6.97;;
27305;SDS011;14792;50.886;6.468;2022-11-15T04:09:55;17.23;;;7.97;;
27305;SDS011;14792;50.886;6.468;2022-11-15T04:13:02;14.45;;;7.22;;
27305;SDS011;14792;50.886;6.468;2022-11-15T04:16:04;12.15;;;7.37;;
27305;SDS011;14792;50.886;6.468;2022-11-15T04:19:06;9.75;;;6.83;;
27305;SDS011;14792;50.886;6.468;2022-11-15T04:22:25;17.40;;;6.97;;
27305;SDS011;14792;50.886;6.468;2022-11-15T04:25:45;12.28;;;6.65;;
27305;SDS011;14792;50.886;6.468;2022-11-15T04:28:46;12.43;;;7.00;;
27305;SDS011;14792;50.886;6.468;2022-11-15T04:32:06;12.65;;;6.92;;
27305;SDS011;14792;50.886;6.468;2022-11-15T04:35:07;8.60;;;5.97;;
27305;SDS011;14792;50.886;6.468;2022-11-15T04:38:09;12.55;;;5.58;;
27305;SDS011;14792;50.886;6.468;2022-11-15T04:41:10;10.00;;;4.50;;
27305;SDS011;14792;50.886;6.468;2022-11-15T04:44:12;6.90;;;4.90;;
27305;SDS011;14792;50.886;6.468;2022-11-15T04:47:13;7.53;;;4.25;;
27305;SDS011;14792;50.886;6.468;2022-11-15T04:50:15;5.97;;;4.08;;
27305;SDS011;14792;50.886;6.468;2022-11-15T04:53:16;5.72;;;4.33;;
27305;SDS011;14792;50.886;6.468;2022-11-15T04:56:18;4.58;;;3.87;;
27305;SDS011;14792;50.886;6.468;2022-11-15T04:59:20;4.12;;;3.58;;
27305;SDS011;14792;50.886;6.468;2022-11-15T05:02:21;8.53;;;4.37;;
27305;SDS011;14792;50.886;6.468;2022-11-15T05:05:25;4.30;;;3.62;;
27305;SDS011;14792;50.886;6.468;2022-11-15T05:08:26;4.62;;;2.33;;
27305;SDS011;14792;50.886;6.468;2022-11-15T05:11:28;2.70;;;2.20;;
27305;SDS011;14792;50.886;6.468;2022-11-15T05:14:29;2.52;;;1.95;;
27305;SDS011;14792;50.886;6.468;2022-11-15T05:17:31;2.37;;;1.90;;
27305;SDS011;14792;50.886;6.468;2022-11-15T05:20:32;1.67;;;1.57;;
27305;SDS011;14792;50.886;6.468;2022-11-15T05:23:34;2.10;;;1.90;;
27305;SDS011;14792;50.886;6.468;2022-11-15T05:26:35;2.15;;;1.72;;
27305;SDS011;14792;50.886;6.468;2022-11-15T05:29:37;2.30;;;1.67;;
27305;SDS011;14792;50.886;6.468;2022-11-15T05:32:39;2.67;;;1.95;;
27305;SDS011;14792;50.886;6.468;2022-11-15T05:35:41;2.87;;;1.70;;
27305;SDS011;14792;50.886;6.468;2022-11-15T05:38:42;2.12;;;1.90;;
27305;SDS011;14792;50.886;6.468;2022-11-15T05:41:44;2.02;;;1.40;;
27305;SDS011;14792;50.886;6.468;2022-11-15T05:44:48;2.83;;;1.67;;
27305;SDS011;14792;50.886;6.468;2022-11-15T05:47:49;2.62;;;1.60;;
27305;SDS011;14792;50.886;6.468;2022-11-15T05:50:51;1.95;;;1.50;;
27305;SDS011;14792;50.886;6.468;2022-11-15T05:53:53;3.47;;;2.10;;
27305;SDS011;14792;50.886;6.468;2022-11-15T05:56:54;2.50;;;2.05;;
27305;SDS011;14792;50.886;6.468;2022-11-15T05:59:56;3.85;;;2.42;;
27305;SDS011;14792;50.886;6.468;2022-11-15T06:02:57;4.42;;;2.22;;
27305;SDS011;14792;50.886;6.468;2022-11-15T06:05:59;14.87;;;5.55;;
27305;SDS011;14792;50.886;6.468;2022-11-15T06:09:01;59.13;;;33.98;;
27305;SDS011;14792;50.886;6.468;2022-11-15T06:12:02;92.50;;;55.88;;
27305;SDS011;14792;50.886;6.468;2022-11-15T06:15:04;76.65;;;45.28;;
27305;SDS011;14792;50.886;6.468;2022-11-15T06:18:05;43.87;;;25.90;;
27305;SDS011;14792;50.886;6.468;2022-11-15T06:21:07;34.98;;;22.22;;
27305;SDS011;14792;50.886;6.468;2022-11-15T06:24:09;6.87;;;5.25;;
27305;SDS011;14792;50.886;6.468;2022-11-15T06:27:10;9.48;;;7.35;;
27305;SDS011;14792;50.886;6.468;2022-11-15T06:30:12;4.90;;;3.83;;
27305;SDS011;14792;50.886;6.468;2022-11-15T06:33:15;7.15;;;1.90;;
27305;SDS011;14792;50.886;6.468;2022-11-15T06:36:17;2.55;;;1.65;;
27305;SDS011;14792;50.886;6.468;2022-11-15T06:39:18;4.03;;;2.20;;
27305;SDS011;14792;50.886;6.468;2022-11-15T06:42:20;5.42;;;3.92;;
27305;SDS011;14792;50.886;6.468;2022-11-15T06:45:22;5.47;;;3.52;;
27305;SDS011;14792;50.886;6.468;2022-11-15T06:48:23;4.97;;;3.67;;
27305;SDS011;14792;50.886;6.468;2022-11-15T06:51:25;8.35;;;5.85;;
27305;SDS011;14792;50.886;6.468;2022-11-15T06:54:26;6.03;;;4.62;;
27305;SDS011;14792;50.886;6.468;2022-11-15T06:57:28;8.98;;;6.33;;
27305;SDS011;14792;50.886;6.468;2022-11-15T07:00:29;7.15;;;6.00;;
27305;SDS011;14792;50.886;6.468;2022-11-15T07:03:31;9.18;;;6.05;;
27305;SDS011;14792;50.886;6.468;2022-11-15T07:06:33;7.80;;;5.30;;
27305;SDS011;14792;50.886;6.468;2022-11-15T07:09:34;4.05;;;3.20;;
27305;SDS011;14792;50.886;6.468;2022-11-15T07:12:36;5.00;;;3.20;;
27305;SDS011;14792;50.886;6.468;2022-11-15T07:15:37;6.50;;;4.03;;
27305;SDS011;14792;50.886;6.468;2022-11-15T07:18:39;8.25;;;5.50;;
27305;SDS011;14792;50.886;6.468;2022-11-15T07:21:41;11.93;;;7.97;;
27305;SDS011;14792;50.886;6.468;2022-11-15T07:24:42;8.85;;;5.85;;
27305;SDS011;14792;50.886;6.468;2022-11-15T07:27:44;5.37;;;3.30;;
27305;SDS011;14792;50.886;6.468;2022-11-15T07:30:45;4.58;;;3.02;;
27305;SDS011;14792;50.886;6.468;2022-11-15T07:33:47;6.58;;;2.58;;
27305;SDS011;14792;50.886;6.468;2022-11-15T07:36:48;4.03;;;2.27;;
27305;SDS011;14792;50.886;6.468;2022-11-15T07:39:50;2.50;;;2.00;;
27305;SDS011;14792;50.886;6.468;2022-11-15T07:42:52;3.47;;;2.12;;
27305;SDS011;14792;50.886;6.468;2022-11-15T07:45:53;4.58;;;1.80;;
27305;SDS011;14792;50.886;6.468;2022-11-15T07:48:58;3.02;;;1.57;;
27305;SDS011;14792;50.886;6.468;2022-11-15T07:52:00;4.17;;;1.70;;
27305;SDS011;14792;50.886;6.468;2022-11-15T07:55:01;2.77;;;1.65;;
27305;SDS011;14792;50.886;6.468;2022-11-15T07:58:04;2.37;;;1.40;;
27305;SDS011;14792;50.886;6.468;2022-11-15T08:01:05;3.42;;;1.20;;
27305;SDS011;14792;50.886;6.468;2022-11-15T08:04:06;4.58;;;1.32;;
27305;SDS011;14792;50.886;6.468;2022-11-15T08:07:08;6.75;;;1.50;;
27305;SDS011;14792;50.886;6.468;2022-11-15T08:10:09;5.62;;;1.70;;
27305;SDS011;14792;50.886;6.468;2022-11-15T08:13:11;2.67;;;1.40;;
27305;SDS011;14792;50.886;6.468;2022-11-15T08:16:12;3.15;;;1.67;;
27305;SDS011;14792;50.886;6.468;2022-11-15T08:19:14;5.00;;;1.55;;
27305;SDS011;14792;50.886;6.468;2022-11-15T08:22:16;2.75;;;1.77;;
27305;SDS011;14792;50.886;6.468;2022-11-15T08:25:17;7.05;;;1.90;;
27305;SDS011;14792;50.886;6.468;2022-11-15T08:28:19;4.40;;;1.92;;
27305;SDS011;14792;50.886;6.468;2022-11-15T08:31:20;5.80;;;2.65;;
27305;SDS011;14792;50.886;6.468;2022-11-15T08:34:22;3.60;;;1.17;;
27305;SDS011;14792;50.886;6.468;2022-11-15T08:37:24;5.05;;;1.62;;
27305;SDS011;14792;50.886;6.468;2022-11-15T08:40:25;2.90;;;1.35;;
27305;SDS011;14792;50.886;6.468;2022-11-15T08:43:27;6.72;;;1.92;;
27305;SDS011;14792;50.886;6.468;2022-11-15T08:46:28;4.58;;;1.60;;
27305;SDS011;14792;50.886;6.468;2022-11-15T08:49:30;5.65;;;1.62;;
27305;SDS011;14792;50.886;6.468;2022-11-15T08:52:32;5.30;;;2.10;;
27305;SDS011;14792;50.886;6.468;2022-11-15T08:55:35;6.37;;;1.65;;
27305;SDS011;14792;50.886;6.468;2022-11-15T08:58:35;5.22;;;2.17;;
27305;SDS011;14792;50.886;6.468;2022-11-15T09:01:36;2.62;;;1.62;;
27305;SDS011;14792;50.886;6.468;2022-11-15T09:04:39;3.80;;;1.90;;
27305;SDS011;14792;50.886;6.468;2022-11-15T09:07:40;4.60;;;2.15;;
27305;SDS011;14792;50.886;6.468;2022-11-15T09:10:41;11.00;;;2.10;;
27305;SDS011;14792;50.886;6.468;2022-11-15T09:13:43;8.00;;;1.75;;
27305;SDS011;14792;50.886;6.468;2022-11-15T09:16:44;6.55;;;2.10;;
27305;SDS011;14792;50.886;6.468;2022-11-15T09:19:46;4.37;;;2.17;;
27305;SDS011;14792;50.886;6.468;2022-11-15T09:22:47;7.53;;;1.95;;
27305;SDS011;14792;50.886;6.468;2022-11-15T09:25:49;4.85;;;2.33;;
27305;SDS011;14792;50.886;6.468;2022-11-15T09:28:51;2.25;;;1.22;;
27305;SDS011;14792;50.886;6.468;2022-11-15T09:31:52;6.67;;;2.12;;
27305;SDS011;14792;50.886;6.468;2022-11-15T09:34:54;5.70;;;1.30;;
27305;SDS011;14792;50.886;6.468;2022-11-15T09:37:57;3.85;;;1.22;;
27305;SDS011;14792;50.886;6.468;2022-11-15T09:44:26;6.33;;;0.88;;
27305;SDS011;14792;50.886;6.468;2022-11-15T09:50:48;3.42;;;1.70;;
27305;SDS011;14792;50.886;6.468;2022-11-15T10:00:55;3.50;;;1.00;;
27305;SDS011;14792;50.886;6.468;2022-11-15T10:03:56;3.77;;;0.95;;
27305;SDS011;14792;50.886;6.468;2022-11-15T10:07:01;3.83;;;1.15;;
27305;SDS011;14792;50.886;6.468;2022-11-15T10:10:02;2.17;;;0.70;;
27305;SDS011;14792;50.886;6.468;2022-11-15T10:13:03;1.90;;;0.75;;
27305;SDS011;14792;50.886;6.468;2022-11-15T10:25:33;7.45;;;0.80;;
27305;SDS011;14792;50.886;6.468;2022-11-15T10:28:35;5.92;;;1.98;;
27305;SDS011;14792;50.886;6.468;2022-11-15T10:31:37;5.42;;;0.90;;
27305;SDS011;14792;50.886;6.468;2022-11-15T10:34:38;4.25;;;0.60;;
27305;SDS011;14792;50.886;6.468;2022-11-15T10:37:40;4.80;;;1.25;;
27305;SDS011;14792;50.886;6.468;2022-11-15T10:40:41;4.47;;;1.37;;
27305;SDS011;14792;50.886;6.468;2022-11-15T10:43:43;7.08;;;1.87;;
27305;SDS011;14792;50.886;6.468;2022-11-15T10:46:50;2.75;;;0.80;;
27305;SDS011;14792;50.886;6.468;2022-11-15T10:49:59;2.08;;;0.90;;
27305;SDS011;14792;50.886;6.468;2022-11-15T10:52:56;5.60;;;0.82;;
27305;SDS011;14792;50.886;6.468;2022-11-15T10:56:07;7.75;;;3.45;;
27305;SDS011;14792;50.886;6.468;2022-11-15T10:59:14;3.95;;;0.95;;
27305;SDS011;14792;50.886;6.468;2022-11-15T11:05:34;2.77;;;0.88;;
27305;SDS011;14792;50.886;6.468;2022-11-15T11:08:34;6.47;;;0.98;;
27305;SDS011;14792;50.886;6.468;2022-11-15T11:11:47;5.87;;;1.92;;
27305;SDS011;14792;50.886;6.468;2022-11-15T11:14:49;4.20;;;0.60;;
27305;SDS011;14792;50.886;6.468;2022-11-15T11:17:57;2.95;;;0.70;;
27305;SDS011;14792;50.886;6.468;2022-11-15T11:21:10;6.28;;;1.17;;
27305;SDS011;14792;50.886;6.468;2022-11-15T11:27:43;3.62;;;1.45;;
27305;SDS011;14792;50.886;6.468;2022-11-15T11:40:44;8.33;;;2.58;;
27305;SDS011;14792;50.886;6.468;2022-11-15T11:46:56;4.45;;;1.10;;
27305;SDS011;14792;50.886;6.468;2022-11-15T11:54:03;9.00;;;2.42;;
27305;SDS011;14792;50.886;6.468;2022-11-15T11:56:26;5.58;;;1.52;;
27305;SDS011;14792;50.886;6.468;2022-11-15T11:59:39;3.72;;;1.22;;
27305;SDS011;14792;50.886;6.468;2022-11-15T12:02:39;2.55;;;1.32;;
27305;SDS011;14792;50.886;6.468;2022-11-15T12:05:44;5.80;;;1.70;;
27305;SDS011;14792;50.886;6.468;2022-11-15T12:08:46;9.08;;;3.25;;
27305;SDS011;14792;50.886;6.468;2022-11-15T12:14:55;6.22;;;2.12;;
27305;SDS011;14792;50.886;6.468;2022-11-15T12:17:58;5.65;;;1.70;;
27305;SDS011;14792;50.886;6.468;2022-11-15T12:21:01;4.05;;;1.17;;
27305;SDS011;14792;50.886;6.468;2022-11-15T12:24:02;6.15;;;2.20;;
27305;SDS011;14792;50.886;6.468;2022-11-15T12:30:49;5.67;;;1.90;;
27305;SDS011;14792;50.886;6.468;2022-11-15T12:33:50;3.70;;;1.07;;
27305;SDS011;14792;50.886;6.468;2022-11-15T12:36:51;3.05;;;1.00;;
27305;SDS011;14792;50.886;6.468;2022-11-15T12:40:16;4.72;;;1.20;;
27305;SDS011;14792;50.886;6.468;2022-11-15T12:52:39;5.40;;;1.70;;
27305;SDS011;14792;50.886;6.468;2022-11-15T12:55:39;7.67;;;2.60;;
27305;SDS011;14792;50.886;6.468;2022-11-15T12:58:57;3.40;;;1.12;;
27305;SDS011;14792;50.886;6.468;2022-11-15T13:01:58;4.40;;;1.45;;
27305;SDS011;14792;50.886;6.468;2022-11-15T13:11:42;3.92;;;1.12;;
27305;SDS011;14792;50.886;6.468;2022-11-15T13:14:44;4.12;;;1.25;;
27305;SDS011;14792;50.886;6.468;2022-11-15T13:17:45;3.92;;;1.45;;
27305;SDS011;14792;50.886;6.468;2022-11-15T13:20:48;4.22;;;1.80;;
27305;SDS011;14792;50.886;6.468;2022-11-15T13:23:54;6.50;;;1.40;;
27305;SDS011;14792;50.886;6.468;2022-11-15T13:26:54;3.50;;;1.30;;
27305;SDS011;14792;50.886;6.468;2022-11-15T13:29:56;4.95;;;1.10;;
27305;SDS011;14792;50.886;6.468;2022-11-15T13:32:58;3.98;;;1.30;;
27305;SDS011;14792;50.886;6.468;2022-11-15T13:36:01;5.72;;;2.02;;
27305;SDS011;14792;50.886;6.468;2022-11-15T13:39:40;5.33;;;1.47;;
27305;SDS011;14792;50.886;6.468;2022-11-15T13:42:29;3.70;;;0.90;;
27305;SDS011;14792;50.886;6.468;2022-11-15T13:45:31;6.78;;;2.20;;
27305;SDS011;14792;50.886;6.468;2022-11-15T13:48:32;2.80;;;1.17;;
27305;SDS011;14792;50.886;6.468;2022-11-15T13:51:52;2.50;;;1.27;;
27305;SDS011;14792;50.886;6.468;2022-11-15T13:57:56;3.25;;;1.55;;
27305;SDS011;14792;50.886;6.468;2022-11-15T14:01:00;1.95;;;1.47;;
27305;SDS011;14792;50.886;6.468;2022-11-15T14:04:03;3.83;;;2.52;;
27305;SDS011;14792;50.886;6.468;2022-11-15T14:07:05;2.62;;;1.90;;
27305;SDS011;14792;50.886;6.468;2022-11-15T14:13:30;2.47;;;1.50;;
27305;SDS011;14792;50.886;6.468;2022-11-15T14:16:35;3.10;;;1.70;;
27305;SDS011;14792;50.886;6.468;2022-11-15T14:19:36;5.03;;;1.92;;
27305;SDS011;14792;50.886;6.468;2022-11-15T14:22:37;3.30;;;2.02;;
27305;SDS011;14792;50.886;6.468;2022-11-15T14:25:39;5.30;;;3.10;;
27305;SDS011;14792;50.886;6.468;2022-11-15T14:28:40;4.62;;;2.37;;
27305;SDS011;14792;50.886;6.468;2022-11-15T14:31:42;5.15;;;3.20;;
27305;SDS011;14792;50.886;6.468;2022-11-15T14:34:43;8.18;;;2.65;;
27305;SDS011;14792;50.886;6.468;2022-11-15T14:37:45;3.90;;;2.27;;
27305;SDS011;14792;50.886;6.468;2022-11-15T14:40:47;5.15;;;2.65;;
27305;SDS011;14792;50.886;6.468;2022-11-15T14:43:48;4.15;;;2.90;;
27305;SDS011;14792;50.886;6.468;2022-11-15T14:46:50;4.20;;;2.60;;
27305;SDS011;14792;50.886;6.468;2022-11-15T14:49:51;4.80;;;2.00;;
27305;SDS011;14792;50.886;6.468;2022-11-15T14:52:53;10.03;;;4.90;;
27305;SDS011;14792;50.886;6.468;2022-11-15T14:55:55;11.55;;;6.17;;
27305;SDS011;14792;50.886;6.468;2022-11-15T14:58:56;9.78;;;4.95;;
27305;SDS011;14792;50.886;6.468;2022-11-15T15:01:58;13.98;;;7.35;;
27305;SDS011;14792;50.886;6.468;2022-11-15T15:04:59;19.73;;;9.40;;
27305;SDS011;14792;50.886;6.468;2022-11-15T15:08:01;14.65;;;7.95;;
27305;SDS011;14792;50.886;6.468;2022-11-15T15:11:03;6.33;;;3.45;;
27305;SDS011;14792;50.886;6.468;2022-11-15T15:14:04;4.40;;;2.00;;
27305;SDS011;14792;50.886;6.468;2022-11-15T15:17:06;5.05;;;3.10;;
27305;SDS011;14792;50.886;6.468;2022-11-15T15:20:08;6.45;;;2.85;;
27305;SDS011;14792;50.886;6.468;2022-11-15T15:23:16;4.72;;;2.17;;
27305;SDS011;14792;50.886;6.468;2022-11-15T15:26:13;6.85;;;2.62;;
27305;SDS011;14792;50.886;6.468;2022-11-15T15:29:15;4.70;;;2.30;;
27305;SDS011;14792;50.886;6.468;2022-11-15T15:32:16;4.30;;;3.05;;
27305;SDS011;14792;50.886;6.468;2022-11-15T15:35:18;3.75;;;2.60;;
27305;SDS011;14792;50.886;6.468;2022-11-15T15:38:20;5.58;;;3.33;;
27305;SDS011;14792;50.886;6.468;2022-11-15T15:41:22;4.53;;;2.00;;
27305;SDS011;14792;50.886;6.468;2022-11-15T15:44:23;5.15;;;1.77;;
27305;SDS011;14792;50.886;6.468;2022-11-15T15:47:25;8.30;;;2.05;;
27305;SDS011;14792;50.886;6.468;2022-11-15T15:50:27;10.00;;;4.08;;
27305;SDS011;14792;50.886;6.468;2022-11-15T15:53:28;4.90;;;1.90;;
27305;SDS011;14792;50.886;6.468;2022-11-15T15:56:29;11.88;;;5.25;;
27305;SDS011;14792;50.886;6.468;2022-11-15T15:59:31;4.85;;;2.05;;
27305;SDS011;14792;50.886;6.468;2022-11-15T16:02:33;5.12;;;2.70;;
27305;SDS011;14792;50.886;6.468;2022-11-15T16:05:34;27.70;;;24.72;;
27305;SDS011;14792;50.886;6.468;2022-11-15T16:08:36;9.60;;;8.20;;
27305;SDS011;14792;50.886;6.468;2022-11-15T16:11:37;7.92;;;2.75;;
27305;SDS011;14792;50.886;6.468;2022-11-15T16:14:39;6.20;;;2.95;;
27305;SDS011;14792;50.886;6.468;2022-11-15T16:17:42;8.70;;;2.50;;
27305;SDS011;14792;50.886;6.468;2022-11-15T16:20:46;9.78;;;2.77;;
27305;SDS011;14792;50.886;6.468;2022-11-15T16:23:46;12.73;;;3.65;;
27305;SDS011;14792;50.886;6.468;2022-11-15T16:26:48;9.70;;;3.00;;
27305;SDS011;14792;50.886;6.468;2022-11-15T16:29:50;10.38;;;2.85;;
27305;SDS011;14792;50.886;6.468;2022-11-15T16:32:51;6.92;;;2.70;;
27305;SDS011;14792;50.886;6.468;2022-11-15T16:38:59;9.90;;;3.85;;
27305;SDS011;14792;50.886;6.468;2022-11-15T16:42:00;11.65;;;3.20;;
27305;SDS011;14792;50.886;6.468;2022-11-15T16:45:02;21.45;;;4.22;;
27305;SDS011;14792;50.886;6.468;2022-11-15T16:48:03;7.62;;;2.60;;
27305;SDS011;14792;50.886;6.468;2022-11-15T16:51:05;7.33;;;2.98;;
27305;SDS011;14792;50.886;6.468;2022-11-15T16:54:07;7.12;;;2.50;;
27305;SDS011;14792;50.886;6.468;2022-11-15T16:57:09;7.45;;;2.10;;
27305;SDS011;14792;50.886;6.468;2022-11-15T17:00:11;6.42;;;2.60;;
27305;SDS011;14792;50.886;6.468;2022-11-15T17:03:17;8.08;;;2.42;;
27305;SDS011;14792;50.886;6.468;2022-11-15T17:06:19;4.62;;;2.25;;
27305;SDS011;14792;50.886;6.468;2022-11-15T17:09:21;5.92;;;2.42;;
27305;SDS011;14792;50.886;6.468;2022-11-15T17:12:22;9.48;;;2.92;;
27305;SDS011;14792;50.886;6.468;2022-11-15T17:15:23;8.83;;;2.87;;
27305;SDS011;14792;50.886;6.468;2022-11-15T17:18:26;13.45;;;3.08;;
27305;SDS011;14792;50.886;6.468;2022-11-15T17:21:28;9.08;;;3.52;;
27305;SDS011;14792;50.886;6.468;2022-11-15T17:24:30;20.48;;;4.55;;
27305;SDS011;14792;50.886;6.468;2022-11-15T17:27:31;17.45;;;4.12;;
27305;SDS011;14792;50.886;6.468;2022-11-15T17:30:33;11.90;;;4.55;;
27305;SDS011;14792;50.886;6.468;2022-11-15T17:33:34;14.05;;;3.67;;
27305;SDS011;14792;50.886;6.468;2022-11-15T17:36:36;8.68;;;3.67;;
27305;SDS011;14792;50.886;6.468;2022-11-15T17:39:38;6.83;;;3.75;;
27305;SDS011;14792;50.886;6.468;2022-11-15T17:42:39;9.83;;;3.85;;
27305;SDS011;14792;50.886;6.468;2022-11-15T17:45:41;8.10;;;4.30;;
27305;SDS011;14792;50.886;6.468;2022-11-15T17:48:42;8.63;;;4.10;;
27305;SDS011;14792;50.886;6.468;2022-11-15T17:51:44;9.25;;;4.37;;
27305;SDS011;14792;50.886;6.468;2022-11-15T17:54:45;9.20;;;4.50;;
27305;SDS011;14792;50.886;6.468;2022-11-15T17:57:47;10.90;;;4.37;;
27305;SDS011;14792;50.886;6.468;2022-11-15T18:00:49;8.48;;;4.95;;
27305;SDS011;14792;50.886;6.468;2022-11-15T18:03:50;10.78;;;4.53;;
27305;SDS011;14792;50.886;6.468;2022-11-15T18:06:52;8.45;;;5.67;;
27305;SDS011;14792;50.886;6.468;2022-11-15T18:09:53;11.30;;;5.50;;
27305;SDS011;14792;50.886;6.468;2022-11-15T18:12:55;9.70;;;4.15;;
27305;SDS011;14792;50.886;6.468;2022-11-15T18:15:57;8.38;;;4.60;;
27305;SDS011;14792;50.886;6.468;2022-11-15T18:18:58;8.15;;;4.83;;
27305;SDS011;14792;50.886;6.468;2022-11-15T18:22:00;11.40;;;4.10;;
27305;SDS011;14792;50.886;6.468;2022-11-15T18:25:01;8.75;;;4.28;;
27305;SDS011;14792;50.886;6.468;2022-11-15T18:28:03;9.80;;;4.40;;
27305;SDS011;14792;50.886;6.468;2022-11-15T18:31:12;7.90;;;4.25;;
27305;SDS011;14792;50.886;6.468;2022-11-15T18:34:15;7.75;;;4.53;;
27305;SDS011;14792;50.886;6.468;2022-11-15T18:37:16;6.03;;;4.15;;
27305;SDS011;14792;50.886;6.468;2022-11-15T18:40:18;7.35;;;3.87;;
27305;SDS011;14792;50.886;6.468;2022-11-15T18:43:19;8.95;;;3.95;;
27305;SDS011;14792;50.886;6.468;2022-11-15T18:46:22;11.35;;;4.03;;
27305;SDS011;14792;50.886;6.468;2022-11-15T18:49:23;11.85;;;4.22;;
27305;SDS011;14792;50.886;6.468;2022-11-15T18:52:24;8.05;;;4.03;;
27305;SDS011;14792;50.886;6.468;2022-11-15T18:55:26;6.62;;;4.05;;
27305;SDS011;14792;50.886;6.468;2022-11-15T18:58:31;9.75;;;4.30;;
27305;SDS011;14792;50.886;6.468;2022-11-15T19:01:32;10.63;;;5.05;;
27305;SDS011;14792;50.886;6.468;2022-11-15T19:04:36;13.15;;;6.90;;
27305;SDS011;14792;50.886;6.468;2022-11-15T19:07:38;10.50;;;5.12;;
27305;SDS011;14792;50.886;6.468;2022-11-15T19:10:39;12.20;;;5.17;;
27305;SDS011;14792;50.886;6.468;2022-11-15T19:13:41;10.95;;;4.97;;
27305;SDS011;14792;50.886;6.468;2022-11-15T19:16:43;9.75;;;5.08;;
27305;SDS011;14792;50.886;6.468;2022-11-15T19:19:44;7.65;;;4.50;;
27305;SDS011;14792;50.886;6.468;2022-11-15T19:22:46;7.75;;;4.75;;
27305;SDS011;14792;50.886;6.468;2022-11-15T19:25:57;7.97;;;4.60;;
27305;SDS011;14792;50.886;6.468;2022-11-15T19:28:56;8.30;;;5.55;;
27305;SDS011;14792;50.886;6.468;2022-11-15T19:31:56;8.08;;;5.80;;
27305;SDS011;14792;50.886;6.468;2022-11-15T19:34:58;10.90;;;5.47;;
27305;SDS011;14792;50.886;6.468;2022-11-15T19:37:59;8.23;;;5.03;;
27305;SDS011;14792;50.886;6.468;2022-11-15T19:41:03;9.13;;;5.20;;
27305;SDS011;14792;50.886;6.468;2022-11-15T19:44:03;8.13;;;4.55;;
27305;SDS011;14792;50.886;6.468;2022-11-15T19:47:04;6.97;;;4.40;;
27305;SDS011;14792;50.886;6.468;2022-11-15T19:50:06;6.62;;;4.55;;
27305;SDS011;14792;50.886;6.468;2022-11-15T19:53:07;7.30;;;3.95;;
27305;SDS011;14792;50.886;6.468;2022-11-15T19:56:10;5.72;;;3.77;;
27305;SDS011;14792;50.886;6.468;2022-11-15T19:59:11;4.45;;;3.55;;
27305;SDS011;14792;50.886;6.468;2022-11-15T20:02:12;4.05;;;3.22;;
27305;SDS011;14792;50.886;6.468;2022-11-15T20:05:14;6.22;;;3.35;;